sensor_id;sensor_type;location;lat;lon;timestamp;pressure;altitude;pressure_sealevel;temperature;humidity
42847;BME280;28495;49.916;14.536;2023-02-28T00:00:13;97882.91;;;-0.66;66.14
42847;BME280;28495;49.916;14.536;2023-02-28T00:05:49;97883.06;;;-0.71;66.34
42847;BME280;28495;49.916;14.536;2023-02-28T00:11:14;97876.78;;;-0.60;66.21
42847;BME280;28495;49.916;14.536;2023-02-28T00:16:35;97876.47;;;-0.50;66.23
42847;BME280;28495;49.916;14.536;2023-02-28T00:21:56;97876.50;;;-0.51;66.10
42847;BME280;28495;49.916;14.536;2023-02-28T00:27:16;97874.22;;;-0.60;65.77
42847;BME280;28495;49.916;14.536;2023-02-28T00:32:39;97867.25;;;-0.55;66.13
42847;BME280;28495;49.916;14.536;2023-02-28T00:38:01;97883.81;;;-0.67;65.52
42847;BME280;28495;49.916;14.536;2023-02-28T00:43:22;97874.28;;;-0.64;66.00
42847;BME280;28495;49.916;14.536;2023-02-28T00:48:43;97880.97;;;-0.58;65.87
42847;BME280;28495;49.916;14.536;2023-02-28T00:54:04;97871.56;;;-0.57;65.80
42847;BME280;28495;49.916;14.536;2023-02-28T00:59:24;97866.25;;;-0.51;65.42
42847;BME280;28495;49.916;14.536;2023-02-28T01:04:46;97862.13;;;-0.55;65.84
42847;BME280;28495;49.916;14.536;2023-02-28T01:10:08;97867.50;;;-0.65;65.47
42847;BME280;28495;49.916;14.536;2023-02-28T01:15:29;97872.03;;;-0.74;65.82
42847;BME280;28495;49.916;14.536;2023-02-28T01:20:52;97873.16;;;-0.83;65.34
42847;BME280;28495;49.916;14.536;2023-02-28T01:26:21;97869.88;;;-0.88;65.78
42847;BME280;28495;49.916;14.536;2023-02-28T01:31:42;97864.75;;;-0.90;66.07
42847;BME280;28495;49.916;14.536;2023-02-28T01:37:04;97869.13;;;-0.94;65.40
42847;BME280;28495;49.916;14.536;2023-02-28T01:42:25;97865.56;;;-1.19;65.38
42847;BME280;28495;49.916;14.536;2023-02-28T01:47:48;97862.34;;;-1.28;65.66
42847;BME280;28495;49.916;14.536;2023-02-28T01:53:15;97859.00;;;-1.30;65.80
42847;BME280;28495;49.916;14.536;2023-02-28T01:58:38;97861.53;;;-1.28;66.25
42847;BME280;28495;49.916;14.536;2023-02-28T02:04:02;97851.34;;;-1.31;66.21
42847;BME280;28495;49.916;14.536;2023-02-28T02:09:23;97845.34;;;-1.30;65.81
42847;BME280;28495;49.916;14.536;2023-02-28T02:14:55;97847.16;;;-1.34;65.98
42847;BME280;28495;49.916;14.536;2023-02-28T02:32:28;97846.50;;;-1.41;66.04
42847;BME280;28495;49.916;14.536;2023-02-28T02:43:26;97837.34;;;-1.51;66.21
42847;BME280;28495;49.916;14.536;2023-02-28T02:48:54;97844.19;;;-1.51;66.57
42847;BME280;28495;49.916;14.536;2023-02-28T02:54:21;97849.25;;;-1.48;66.31
42847;BME280;28495;49.916;14.536;2023-02-28T02:59:43;97846.69;;;-1.50;66.33
42847;BME280;28495;49.916;14.536;2023-02-28T03:05:09;97846.69;;;-1.48;66.84
42847;BME280;28495;49.916;14.536;2023-02-28T03:10:39;97850.84;;;-1.44;66.69
42847;BME280;28495;49.916;14.536;2023-02-28T03:21:46;97851.13;;;-1.57;66.65
42847;BME280;28495;49.916;14.536;2023-02-28T03:27:38;97844.34;;;-1.58;66.60
42847;BME280;28495;49.916;14.536;2023-02-28T03:33:08;97854.50;;;-1.55;66.78
42847;BME280;28495;49.916;14.536;2023-02-28T03:38:38;97844.44;;;-1.61;67.09
42847;BME280;28495;49.916;14.536;2023-02-28T03:44:06;97845.31;;;-1.63;66.99
42847;BME280;28495;49.916;14.536;2023-02-28T03:50:02;97834.22;;;-1.62;66.59
42847;BME280;28495;49.916;14.536;2023-02-28T03:55:21;97843.56;;;-1.60;67.25
42847;BME280;28495;49.916;14.536;2023-02-28T04:00:48;97853.06;;;-1.65;66.73
42847;BME280;28495;49.916;14.536;2023-02-28T04:06:17;97856.72;;;-1.75;66.52
42847;BME280;28495;49.916;14.536;2023-02-28T04:11:44;97856.56;;;-1.69;67.12
42847;BME280;28495;49.916;14.536;2023-02-28T04:17:06;97859.22;;;-1.74;66.61
42847;BME280;28495;49.916;14.536;2023-02-28T04:22:27;97860.78;;;-1.68;66.53
42847;BME280;28495;49.916;14.536;2023-02-28T04:27:49;97861.59;;;-1.66;66.22
42847;BME280;28495;49.916;14.536;2023-02-28T04:33:10;97861.91;;;-1.78;66.37
42847;BME280;28495;49.916;14.536;2023-02-28T04:38:36;97861.41;;;-1.94;66.07
42847;BME280;28495;49.916;14.536;2023-02-28T04:43:58;97859.19;;;-2.10;66.48
42847;BME280;28495;49.916;14.536;2023-02-28T04:49:18;97859.28;;;-2.13;66.06
42847;BME280;28495;49.916;14.536;2023-02-28T04:54:39;97870.44;;;-2.17;66.05
42847;BME280;28495;49.916;14.536;2023-02-28T05:00:00;97862.75;;;-2.16;66.61
42847;BME280;28495;49.916;14.536;2023-02-28T05:05:21;97866.81;;;-2.07;66.53
42847;BME280;28495;49.916;14.536;2023-02-28T05:10:42;97865.75;;;-1.98;66.20
42847;BME280;28495;49.916;14.536;2023-02-28T05:16:03;97871.22;;;-2.13;66.29
42847;BME280;28495;49.916;14.536;2023-02-28T05:21:51;97871.22;;;-2.13;66.26
42847;BME280;28495;49.916;14.536;2023-02-28T05:27:12;97889.09;;;-2.13;65.98
42847;BME280;28495;49.916;14.536;2023-02-28T05:32:33;97888.63;;;-2.30;66.09
42847;BME280;28495;49.916;14.536;2023-02-28T05:37:54;97895.59;;;-2.38;66.07
42847;BME280;28495;49.916;14.536;2023-02-28T05:43:15;97892.41;;;-2.49;66.13
42847;BME280;28495;49.916;14.536;2023-02-28T05:48:37;97895.88;;;-2.52;65.76
42847;BME280;28495;49.916;14.536;2023-02-28T05:54:00;97903.72;;;-2.61;66.07
42847;BME280;28495;49.916;14.536;2023-02-28T05:59:21;97898.59;;;-2.61;66.42
42847;BME280;28495;49.916;14.536;2023-02-28T06:04:43;97905.44;;;-2.63;65.84
42847;BME280;28495;49.916;14.536;2023-02-28T06:10:04;97906.16;;;-2.56;66.13
42847;BME280;28495;49.916;14.536;2023-02-28T06:15:25;97915.59;;;-2.58;66.59
42847;BME280;28495;49.916;14.536;2023-02-28T06:20:52;97920.00;;;-2.65;65.69
42847;BME280;28495;49.916;14.536;2023-02-28T06:26:14;97925.78;;;-2.57;66.35
42847;BME280;28495;49.916;14.536;2023-02-28T06:31:35;97927.41;;;-2.54;66.52
42847;BME280;28495;49.916;14.536;2023-02-28T06:36:56;97935.16;;;-2.57;65.85
42847;BME280;28495;49.916;14.536;2023-02-28T06:42:17;97937.69;;;-2.56;66.25
42847;BME280;28495;49.916;14.536;2023-02-28T06:47:39;97942.59;;;-2.45;66.01
42847;BME280;28495;49.916;14.536;2023-02-28T06:53:01;97952.66;;;-2.37;66.10
42847;BME280;28495;49.916;14.536;2023-02-28T06:58:22;97949.19;;;-2.35;66.04
42847;BME280;28495;49.916;14.536;2023-02-28T07:03:43;97948.25;;;-2.32;65.84
42847;BME280;28495;49.916;14.536;2023-02-28T07:09:04;97953.25;;;-2.26;66.33
42847;BME280;28495;49.916;14.536;2023-02-28T07:14:24;97948.59;;;-2.07;66.09
42847;BME280;28495;49.916;14.536;2023-02-28T07:19:45;97959.34;;;-1.91;66.08
42847;BME280;28495;49.916;14.536;2023-02-28T07:25:06;97962.06;;;-1.98;65.53
42847;BME280;28495;49.916;14.536;2023-02-28T07:30:27;97953.28;;;-1.87;65.68
42847;BME280;28495;49.916;14.536;2023-02-28T07:35:48;97961.47;;;-1.71;65.61
42847;BME280;28495;49.916;14.536;2023-02-28T07:41:09;97967.41;;;-1.69;64.96
42847;BME280;28495;49.916;14.536;2023-02-28T07:46:30;97971.19;;;-1.49;65.39
42847;BME280;28495;49.916;14.536;2023-02-28T07:51:56;97974.44;;;-1.41;64.83
42847;BME280;28495;49.916;14.536;2023-02-28T07:57:17;97975.25;;;-1.39;64.89
42847;BME280;28495;49.916;14.536;2023-02-28T08:02:38;97971.63;;;-1.30;65.00
42847;BME280;28495;49.916;14.536;2023-02-28T08:08:00;97982.31;;;-1.14;64.75
42847;BME280;28495;49.916;14.536;2023-02-28T08:13:20;97993.25;;;-1.07;64.13
42847;BME280;28495;49.916;14.536;2023-02-28T08:18:41;97988.94;;;-1.05;63.75
42847;BME280;28495;49.916;14.536;2023-02-28T08:24:02;97992.38;;;-1.06;63.87
42847;BME280;28495;49.916;14.536;2023-02-28T08:29:22;97981.31;;;-1.08;63.92
42847;BME280;28495;49.916;14.536;2023-02-28T08:34:44;97981.78;;;-0.92;64.12
42847;BME280;28495;49.916;14.536;2023-02-28T08:40:07;97977.84;;;-0.72;64.00
42847;BME280;28495;49.916;14.536;2023-02-28T08:45:29;97975.16;;;-0.66;63.16
42847;BME280;28495;49.916;14.536;2023-02-28T08:51:04;97977.59;;;-0.62;63.33
42847;BME280;28495;49.916;14.536;2023-02-28T08:56:28;97982.16;;;-0.41;63.44
42847;BME280;28495;49.916;14.536;2023-02-28T09:01:49;97984.38;;;-0.29;63.09
42847;BME280;28495;49.916;14.536;2023-02-28T09:07:11;97962.19;;;-0.30;62.61
42847;BME280;28495;49.916;14.536;2023-02-28T09:12:34;97982.63;;;-0.27;62.94
42847;BME280;28495;49.916;14.536;2023-02-28T09:17:55;97983.03;;;-0.11;62.80
42847;BME280;28495;49.916;14.536;2023-02-28T09:23:16;97975.06;;;-0.02;62.80
42847;BME280;28495;49.916;14.536;2023-02-28T09:28:37;97973.75;;;0.15;63.12
42847;BME280;28495;49.916;14.536;2023-02-28T09:33:58;97978.19;;;0.38;63.07
42847;BME280;28495;49.916;14.536;2023-02-28T09:39:21;97975.34;;;0.19;62.41
42847;BME280;28495;49.916;14.536;2023-02-28T09:44:44;97975.28;;;0.21;62.50
42847;BME280;28495;49.916;14.536;2023-02-28T09:55:48;97972.69;;;0.22;62.36
42847;BME280;28495;49.916;14.536;2023-02-28T10:06:51;97978.47;;;0.29;62.39
42847;BME280;28495;49.916;14.536;2023-02-28T10:12:15;97977.38;;;0.36;62.02
42847;BME280;28495;49.916;14.536;2023-02-28T10:17:41;97984.75;;;0.47;61.88
42847;BME280;28495;49.916;14.536;2023-02-28T10:23:34;97988.22;;;0.73;62.40
42847;BME280;28495;49.916;14.536;2023-02-28T10:28:55;97991.16;;;0.89;62.22
42847;BME280;28495;49.916;14.536;2023-02-28T10:34:16;97977.03;;;1.02;62.22
42847;BME280;28495;49.916;14.536;2023-02-28T10:39:43;97979.00;;;0.94;62.01
42847;BME280;28495;49.916;14.536;2023-02-28T10:45:10;97977.13;;;0.99;62.27
42847;BME280;28495;49.916;14.536;2023-02-28T11:06:57;97963.75;;;1.15;61.47
42847;BME280;28495;49.916;14.536;2023-02-28T11:17:40;97953.41;;;1.42;62.04
42847;BME280;28495;49.916;14.536;2023-02-28T11:23:04;97948.72;;;1.53;61.31
42847;BME280;28495;49.916;14.536;2023-02-28T11:28:37;97951.09;;;1.59;61.32
42847;BME280;28495;49.916;14.536;2023-02-28T11:33:59;97945.78;;;1.64;61.36
42847;BME280;28495;49.916;14.536;2023-02-28T11:39:20;97936.44;;;1.85;61.76
42847;BME280;28495;49.916;14.536;2023-02-28T11:56:06;97927.09;;;1.82;61.22
42847;BME280;28495;49.916;14.536;2023-02-28T12:01:59;97933.06;;;1.83;61.39
42847;BME280;28495;49.916;14.536;2023-02-28T12:07:34;97918.25;;;1.90;60.88
42847;BME280;28495;49.916;14.536;2023-02-28T12:13:16;97924.78;;;1.98;60.94
42847;BME280;28495;49.916;14.536;2023-02-28T12:30:35;97905.19;;;2.18;60.76
42847;BME280;28495;49.916;14.536;2023-02-28T12:35:59;97899.25;;;2.16;60.45
42847;BME280;28495;49.916;14.536;2023-02-28T12:41:33;97895.13;;;2.12;59.93
42847;BME280;28495;49.916;14.536;2023-02-28T12:46:59;97902.78;;;2.13;60.63
42847;BME280;28495;49.916;14.536;2023-02-28T12:52:29;97899.22;;;2.18;60.06
42847;BME280;28495;49.916;14.536;2023-02-28T13:03:56;97894.09;;;2.38;60.56
42847;BME280;28495;49.916;14.536;2023-02-28T13:09:21;97898.94;;;2.46;60.02
42847;BME280;28495;49.916;14.536;2023-02-28T13:14:42;97890.78;;;2.57;60.06
42847;BME280;28495;49.916;14.536;2023-02-28T13:20:04;97891.03;;;2.51;59.65
42847;BME280;28495;49.916;14.536;2023-02-28T13:41:46;97889.78;;;2.39;59.20
42847;BME280;28495;49.916;14.536;2023-02-28T13:47:22;97893.97;;;2.41;59.09
42847;BME280;28495;49.916;14.536;2023-02-28T13:52:52;97888.31;;;2.54;59.35
42847;BME280;28495;49.916;14.536;2023-02-28T13:58:50;97881.19;;;2.61;59.47
42847;BME280;28495;49.916;14.536;2023-02-28T14:10:07;97873.25;;;2.44;59.35
42847;BME280;28495;49.916;14.536;2023-02-28T14:21:23;97869.50;;;2.31;59.50
42847;BME280;28495;49.916;14.536;2023-02-28T14:37:46;97867.09;;;2.49;59.93
42847;BME280;28495;49.916;14.536;2023-02-28T14:43:22;97866.56;;;2.40;58.65
42847;BME280;28495;49.916;14.536;2023-02-28T14:48:49;97869.44;;;2.33;59.27
42847;BME280;28495;49.916;14.536;2023-02-28T14:54:15;97858.34;;;2.31;59.30
42847;BME280;28495;49.916;14.536;2023-02-28T14:59:36;97865.50;;;2.24;59.58
42847;BME280;28495;49.916;14.536;2023-02-28T15:10:30;97871.00;;;2.15;58.84
42847;BME280;28495;49.916;14.536;2023-02-28T15:15:56;97872.91;;;2.09;58.97
42847;BME280;28495;49.916;14.536;2023-02-28T15:21:31;97870.59;;;2.03;58.88
42847;BME280;28495;49.916;14.536;2023-02-28T15:27:00;97863.19;;;2.18;59.42
42847;BME280;28495;49.916;14.536;2023-02-28T15:43:16;97860.94;;;1.86;58.46
42847;BME280;28495;49.916;14.536;2023-02-28T15:48:52;97860.31;;;2.46;59.89
42847;BME280;28495;49.916;14.536;2023-02-28T15:54:21;97859.56;;;2.22;58.19
42847;BME280;28495;49.916;14.536;2023-02-28T15:59:54;97869.06;;;1.97;58.43
42847;BME280;28495;49.916;14.536;2023-02-28T16:05:23;97868.84;;;1.81;58.45
42847;BME280;28495;49.916;14.536;2023-02-28T16:10:51;97871.88;;;1.69;58.16
42847;BME280;28495;49.916;14.536;2023-02-28T16:16:21;97876.06;;;1.72;58.17
42847;BME280;28495;49.916;14.536;2023-02-28T16:21:44;97879.72;;;1.66;58.31
42847;BME280;28495;49.916;14.536;2023-02-28T16:27:05;97880.66;;;1.63;58.18
42847;BME280;28495;49.916;14.536;2023-02-28T16:32:27;97878.28;;;1.59;58.70
42847;BME280;28495;49.916;14.536;2023-02-28T16:37:50;97884.63;;;1.72;58.69
42847;BME280;28495;49.916;14.536;2023-02-28T16:43:18;97894.47;;;1.61;58.04
42847;BME280;28495;49.916;14.536;2023-02-28T16:48:40;97888.88;;;1.49;58.43
42847;BME280;28495;49.916;14.536;2023-02-28T16:54:03;97890.56;;;1.50;59.14
42847;BME280;28495;49.916;14.536;2023-02-28T16:59:26;97893.97;;;1.51;58.53
42847;BME280;28495;49.916;14.536;2023-02-28T17:04:47;97904.56;;;1.42;58.87
42847;BME280;28495;49.916;14.536;2023-02-28T17:10:23;97903.78;;;1.40;59.00
42847;BME280;28495;49.916;14.536;2023-02-28T17:15:45;97915.81;;;1.39;59.15
42847;BME280;28495;49.916;14.536;2023-02-28T17:21:15;97920.34;;;1.32;58.99
42847;BME280;28495;49.916;14.536;2023-02-28T17:26:36;97920.72;;;1.21;58.49
42847;BME280;28495;49.916;14.536;2023-02-28T17:31:58;97927.53;;;1.23;58.86
42847;BME280;28495;49.916;14.536;2023-02-28T17:37:28;97928.63;;;1.15;58.92
42847;BME280;28495;49.916;14.536;2023-02-28T17:42:49;97938.16;;;1.12;59.04
42847;BME280;28495;49.916;14.536;2023-02-28T17:48:12;97927.16;;;1.08;59.13
42847;BME280;28495;49.916;14.536;2023-02-28T17:53:34;97929.63;;;1.11;58.75
42847;BME280;28495;49.916;14.536;2023-02-28T17:58:55;97924.09;;;1.22;59.66
42847;BME280;28495;49.916;14.536;2023-02-28T18:04:17;97927.19;;;1.06;58.88
42847;BME280;28495;49.916;14.536;2023-02-28T18:09:37;97931.84;;;0.97;58.23
42847;BME280;28495;49.916;14.536;2023-02-28T18:14:59;97926.16;;;0.87;58.79
42847;BME280;28495;49.916;14.536;2023-02-28T18:20:20;97927.25;;;0.80;58.73
42847;BME280;28495;49.916;14.536;2023-02-28T18:25:42;97926.44;;;0.78;58.85
42847;BME280;28495;49.916;14.536;2023-02-28T18:31:07;97925.56;;;0.79;58.54
42847;BME280;28495;49.916;14.536;2023-02-28T18:36:28;97921.06;;;0.85;58.90
42847;BME280;28495;49.916;14.536;2023-02-28T18:41:49;97918.56;;;0.84;58.68
42847;BME280;28495;49.916;14.536;2023-02-28T18:47:09;97929.16;;;0.74;58.65
42847;BME280;28495;49.916;14.536;2023-02-28T18:52:30;97929.81;;;0.80;58.96
42847;BME280;28495;49.916;14.536;2023-02-28T18:57:51;97930.34;;;0.89;59.43
42847;BME280;28495;49.916;14.536;2023-02-28T19:03:12;97925.22;;;1.15;59.75
42847;BME280;28495;49.916;14.536;2023-02-28T19:08:33;97917.88;;;1.29;59.76
42847;BME280;28495;49.916;14.536;2023-02-28T19:13:54;97921.25;;;1.55;60.07
42847;BME280;28495;49.916;14.536;2023-02-28T19:19:16;97913.63;;;1.76;59.51
42847;BME280;28495;49.916;14.536;2023-02-28T19:24:36;97914.31;;;1.81;59.48
42847;BME280;28495;49.916;14.536;2023-02-28T19:29:57;97906.59;;;1.81;61.47
42847;BME280;28495;49.916;14.536;2023-02-28T19:35:18;97902.78;;;2.13;59.90
42847;BME280;28495;49.916;14.536;2023-02-28T19:40:40;97904.53;;;1.67;59.02
42847;BME280;28495;49.916;14.536;2023-02-28T19:46:01;97898.00;;;1.58;59.57
42847;BME280;28495;49.916;14.536;2023-02-28T19:51:22;97899.53;;;1.39;59.09
42847;BME280;28495;49.916;14.536;2023-02-28T19:56:43;97903.91;;;1.36;59.59
42847;BME280;28495;49.916;14.536;2023-02-28T20:02:23;97897.31;;;1.29;59.36
42847;BME280;28495;49.916;14.536;2023-02-28T20:07:44;97905.28;;;1.21;59.47
42847;BME280;28495;49.916;14.536;2023-02-28T20:13:04;97913.56;;;1.30;59.62
42847;BME280;28495;49.916;14.536;2023-02-28T20:18:25;97905.28;;;1.21;59.42
42847;BME280;28495;49.916;14.536;2023-02-28T20:23:46;97916.56;;;0.92;59.14
42847;BME280;28495;49.916;14.536;2023-02-28T20:29:08;97920.94;;;0.63;58.29
42847;BME280;28495;49.916;14.536;2023-02-28T20:34:29;97923.34;;;0.41;58.70
42847;BME280;28495;49.916;14.536;2023-02-28T20:39:50;97919.53;;;0.26;58.96
42847;BME280;28495;49.916;14.536;2023-02-28T20:45:12;97912.81;;;0.22;59.08
42847;BME280;28495;49.916;14.536;2023-02-28T20:50:33;97913.00;;;0.15;58.97
42847;BME280;28495;49.916;14.536;2023-02-28T21:01:20;97914.25;;;0.04;59.48
42847;BME280;28495;49.916;14.536;2023-02-28T21:06:45;97915.06;;;0.04;59.76
42847;BME280;28495;49.916;14.536;2023-02-28T21:12:07;97913.63;;;0.24;59.60
42847;BME280;28495;49.916;14.536;2023-02-28T21:17:28;97919.00;;;0.16;59.11
42847;BME280;28495;49.916;14.536;2023-02-28T21:22:50;97914.97;;;0.07;59.26
42847;BME280;28495;49.916;14.536;2023-02-28T21:28:12;97921.53;;;-0.12;59.25
42847;BME280;28495;49.916;14.536;2023-02-28T21:33:34;97919.31;;;-0.23;59.20
42847;BME280;28495;49.916;14.536;2023-02-28T21:38:58;97920.28;;;-0.27;59.65
42847;BME280;28495;49.916;14.536;2023-02-28T21:44:20;97907.38;;;-0.24;59.82
42847;BME280;28495;49.916;14.536;2023-02-28T21:49:42;97905.56;;;-0.22;59.91
42847;BME280;28495;49.916;14.536;2023-02-28T21:55:03;97907.16;;;-0.18;59.55
42847;BME280;28495;49.916;14.536;2023-02-28T22:00:24;97901.44;;;-0.26;59.77
42847;BME280;28495;49.916;14.536;2023-02-28T22:05:45;97908.34;;;-0.28;59.87
42847;BME280;28495;49.916;14.536;2023-02-28T22:11:06;97909.88;;;-0.23;60.22
42847;BME280;28495;49.916;14.536;2023-02-28T22:16:30;97925.03;;;-0.15;60.06
42847;BME280;28495;49.916;14.536;2023-02-28T22:22:09;97932.78;;;-0.17;60.19
42847;BME280;28495;49.916;14.536;2023-02-28T22:27:29;97920.66;;;-0.11;60.08
42847;BME280;28495;49.916;14.536;2023-02-28T22:32:50;97920.72;;;-0.14;59.80
42847;BME280;28495;49.916;14.536;2023-02-28T22:38:11;97916.63;;;-0.20;60.23
42847;BME280;28495;49.916;14.536;2023-02-28T22:43:33;97932.50;;;-0.07;60.18
42847;BME280;28495;49.916;14.536;2023-02-28T22:48:54;97924.81;;;-0.07;60.29
42847;BME280;28495;49.916;14.536;2023-02-28T22:54:15;97922.25;;;-0.07;59.98
42847;BME280;28495;49.916;14.536;2023-02-28T22:59:36;97919.09;;;-0.16;59.82
42847;BME280;28495;49.916;14.536;2023-02-28T23:04:57;97924.06;;;-0.11;59.91
42847;BME280;28495;49.916;14.536;2023-02-28T23:10:17;97916.19;;;-0.05;60.17
42847;BME280;28495;49.916;14.536;2023-02-28T23:15:39;97915.34;;;-0.05;59.84
42847;BME280;28495;49.916;14.536;2023-02-28T23:21:00;97914.63;;;-0.10;59.63
42847;BME280;28495;49.916;14.536;2023-02-28T23:26:22;97911.38;;;-0.16;59.88
42847;BME280;28495;49.916;14.536;2023-02-28T23:31:43;97920.72;;;-0.13;60.11
42847;BME280;28495;49.916;14.536;2023-02-28T23:37:04;97920.34;;;-0.01;60.34
42847;BME280;28495;49.916;14.536;2023-02-28T23:42:25;97918.78;;;-0.06;60.31
42847;BME280;28495;49.916;14.536;2023-02-28T23:47:46;97917.13;;;-0.07;60.11
42847;BME280;28495;49.916;14.536;2023-02-28T23:53:07;97920.00;;;-0.18;59.83
42847;BME280;28495;49.916;14.536;2023-02-28T23:58:28;97916.03;;;-0.28;60.19
